sensor_id;sensor_type;location;lat;lon;timestamp;temperature;humidity
18160;DHT22;9205;52.032;4.314;2023-04-06T00:00:59;7.60;1.00
18160;DHT22;9205;52.032;4.314;2023-04-06T00:03:27;7.70;1.00
18160;DHT22;9205;52.032;4.314;2023-04-06T00:05:54;7.60;1.00
18160;DHT22;9205;52.032;4.314;2023-04-06T00:08:21;7.60;1.00
18160;DHT22;9205;52.032;4.314;2023-04-06T00:10:49;7.60;1.00
18160;DHT22;9205;52.032;4.314;2023-04-06T00:13:16;7.60;1.00
18160;DHT22;9205;52.032;4.314;2023-04-06T00:15:45;7.60;1.00
18160;DHT22;9205;52.032;4.314;2023-04-06T00:18:12;7.50;1.00
18160;DHT22;9205;52.032;4.314;2023-04-06T00:20:40;7.50;1.00
18160;DHT22;9205;52.032;4.314;2023-04-06T00:23:07;7.50;1.00
18160;DHT22;9205;52.032;4.314;2023-04-06T00:25:34;7.40;1.00
18160;DHT22;9205;52.032;4.314;2023-04-06T00:28:02;7.40;1.00
18160;DHT22;9205;52.032;4.314;2023-04-06T00:30:29;7.40;1.00
18160;DHT22;9205;52.032;4.314;2023-04-06T00:32:58;7.40;1.00
18160;DHT22;9205;52.032;4.314;2023-04-06T00:35:26;7.50;1.00
18160;DHT22;9205;52.032;4.314;2023-04-06T00:37:53;7.40;1.00
18160;DHT22;9205;52.032;4.314;2023-04-06T00:40:21;7.40;1.00
18160;DHT22;9205;52.032;4.314;2023-04-06T00:42:48;7.40;1.00
18160;DHT22;9205;52.032;4.314;2023-04-06T00:45:16;7.40;1.00
18160;DHT22;9205;52.032;4.314;2023-04-06T00:47:43;7.50;1.00
18160;DHT22;9205;52.032;4.314;2023-04-06T00:50:12;7.50;1.00
18160;DHT22;9205;52.032;4.314;2023-04-06T00:52:40;7.50;1.00
18160;DHT22;9205;52.032;4.314;2023-04-06T00:55:08;7.50;1.00
18160;DHT22;9205;52.032;4.314;2023-04-06T00:57:40;7.50;1.00
18160;DHT22;9205;52.032;4.314;2023-04-06T01:00:09;7.50;1.00
18160;DHT22;9205;52.032;4.314;2023-04-06T01:02:38;7.50;1.00
18160;DHT22;9205;52.032;4.314;2023-04-06T01:05:07;7.50;1.00
18160;DHT22;9205;52.032;4.314;2023-04-06T01:07:46;7.50;1.00
18160;DHT22;9205;52.032;4.314;2023-04-06T01:10:24;7.50;1.00
18160;DHT22;9205;52.032;4.314;2023-04-06T01:12:59;7.50;99.90
18160;DHT22;9205;52.032;4.314;2023-04-06T01:15:49;7.50;99.90
18160;DHT22;9205;52.032;4.314;2023-04-06T01:18:26;7.50;99.90
18160;DHT22;9205;52.032;4.314;2023-04-06T01:21:03;7.50;99.90
18160;DHT22;9205;52.032;4.314;2023-04-06T01:23:32;7.50;99.90
18160;DHT22;9205;52.032;4.314;2023-04-06T01:25:59;7.50;99.90
18160;DHT22;9205;52.032;4.314;2023-04-06T01:28:28;7.50;99.90
18160;DHT22;9205;52.032;4.314;2023-04-06T01:31:08;7.60;99.90
18160;DHT22;9205;52.032;4.314;2023-04-06T01:33:43;7.60;99.90
18160;DHT22;9205;52.032;4.314;2023-04-06T01:36:15;7.60;99.90
18160;DHT22;9205;52.032;4.314;2023-04-06T01:38:45;7.60;99.90
18160;DHT22;9205;52.032;4.314;2023-04-06T01:41:15;7.60;99.90
18160;DHT22;9205;52.032;4.314;2023-04-06T01:43:48;7.60;99.90
18160;DHT22;9205;52.032;4.314;2023-04-06T01:46:20;7.60;99.90
18160;DHT22;9205;52.032;4.314;2023-04-06T01:48:48;7.60;99.90
18160;DHT22;9205;52.032;4.314;2023-04-06T01:51:21;7.60;99.90
18160;DHT22;9205;52.032;4.314;2023-04-06T01:53:56;7.60;99.90
18160;DHT22;9205;52.032;4.314;2023-04-06T01:56:32;7.60;99.90
18160;DHT22;9205;52.032;4.314;2023-04-06T01:59:16;7.60;99.90
18160;DHT22;9205;52.032;4.314;2023-04-06T02:01:44;7.70;99.90
18160;DHT22;9205;52.032;4.314;2023-04-06T02:04:12;7.70;99.90
18160;DHT22;9205;52.032;4.314;2023-04-06T02:06:40;7.70;99.90
18160;DHT22;9205;52.032;4.314;2023-04-06T02:09:12;7.70;99.90
18160;DHT22;9205;52.032;4.314;2023-04-06T02:11:39;7.70;99.90
18160;DHT22;9205;52.032;4.314;2023-04-06T02:14:07;7.60;99.90
18160;DHT22;9205;52.032;4.314;2023-04-06T02:16:40;7.60;99.90
18160;DHT22;9205;52.032;4.314;2023-04-06T02:19:07;7.70;99.90
18160;DHT22;9205;52.032;4.314;2023-04-06T02:21:34;7.70;99.90
18160;DHT22;9205;52.032;4.314;2023-04-06T02:24:01;7.70;99.90
18160;DHT22;9205;52.032;4.314;2023-04-06T02:26:30;7.70;99.90
18160;DHT22;9205;52.032;4.314;2023-04-06T02:28:57;7.70;99.90
18160;DHT22;9205;52.032;4.314;2023-04-06T02:31:25;7.70;99.90
18160;DHT22;9205;52.032;4.314;2023-04-06T02:33:53;7.70;99.90
18160;DHT22;9205;52.032;4.314;2023-04-06T02:36:21;7.70;99.90
18160;DHT22;9205;52.032;4.314;2023-04-06T02:38:48;7.70;99.90
18160;DHT22;9205;52.032;4.314;2023-04-06T02:41:16;7.70;99.90
18160;DHT22;9205;52.032;4.314;2023-04-06T02:43:45;7.60;99.90
18160;DHT22;9205;52.032;4.314;2023-04-06T02:46:20;7.60;99.90
18160;DHT22;9205;52.032;4.314;2023-04-06T02:48:48;7.60;99.90
18160;DHT22;9205;52.032;4.314;2023-04-06T02:51:15;7.60;99.90
18160;DHT22;9205;52.032;4.314;2023-04-06T02:53:47;7.60;99.90
18160;DHT22;9205;52.032;4.314;2023-04-06T02:56:14;7.60;99.90
18160;DHT22;9205;52.032;4.314;2023-04-06T02:58:48;7.60;99.90
18160;DHT22;9205;52.032;4.314;2023-04-06T03:01:16;7.60;99.90
18160;DHT22;9205;52.032;4.314;2023-04-06T03:03:45;7.60;99.90
18160;DHT22;9205;52.032;4.314;2023-04-06T03:06:20;7.60;99.90
18160;DHT22;9205;52.032;4.314;2023-04-06T03:08:51;7.50;99.90
18160;DHT22;9205;52.032;4.314;2023-04-06T03:11:19;7.60;99.90
18160;DHT22;9205;52.032;4.314;2023-04-06T03:13:50;7.60;99.90
18160;DHT22;9205;52.032;4.314;2023-04-06T03:16:18;7.60;99.90
18160;DHT22;9205;52.032;4.314;2023-04-06T03:18:45;7.60;99.90
18160;DHT22;9205;52.032;4.314;2023-04-06T03:21:13;7.60;99.90
18160;DHT22;9205;52.032;4.314;2023-04-06T03:23:48;7.60;99.90
18160;DHT22;9205;52.032;4.314;2023-04-06T03:26:16;7.60;99.90
18160;DHT22;9205;52.032;4.314;2023-04-06T03:28:44;7.60;99.90
18160;DHT22;9205;52.032;4.314;2023-04-06T03:31:13;7.60;99.90
18160;DHT22;9205;52.032;4.314;2023-04-06T03:34:06;7.60;99.90
18160;DHT22;9205;52.032;4.314;2023-04-06T03:36:35;7.60;99.90
18160;DHT22;9205;52.032;4.314;2023-04-06T03:39:04;7.60;99.90
18160;DHT22;9205;52.032;4.314;2023-04-06T03:41:34;7.60;99.90
18160;DHT22;9205;52.032;4.314;2023-04-06T03:44:25;7.60;99.90
18160;DHT22;9205;52.032;4.314;2023-04-06T03:46:53;7.60;99.90
18160;DHT22;9205;52.032;4.314;2023-04-06T03:49:21;7.60;99.90
18160;DHT22;9205;52.032;4.314;2023-04-06T03:51:50;7.60;99.90
18160;DHT22;9205;52.032;4.314;2023-04-06T03:54:17;7.60;99.90
18160;DHT22;9205;52.032;4.314;2023-04-06T03:56:45;7.60;99.90
18160;DHT22;9205;52.032;4.314;2023-04-06T03:59:12;7.60;99.90
18160;DHT22;9205;52.032;4.314;2023-04-06T04:01:39;7.60;99.90
18160;DHT22;9205;52.032;4.314;2023-04-06T04:04:08;7.60;99.90
18160;DHT22;9205;52.032;4.314;2023-04-06T04:06:35;7.60;99.90
18160;DHT22;9205;52.032;4.314;2023-04-06T04:09:03;7.60;1.00
18160;DHT22;9205;52.032;4.314;2023-04-06T04:11:30;7.60;1.00
18160;DHT22;9205;52.032;4.314;2023-04-06T04:13:59;7.60;1.00
18160;DHT22;9205;52.032;4.314;2023-04-06T04:16:26;7.60;1.00
18160;DHT22;9205;52.032;4.314;2023-04-06T04:18:53;7.60;1.00
18160;DHT22;9205;52.032;4.314;2023-04-06T04:21:24;7.60;1.00
18160;DHT22;9205;52.032;4.314;2023-04-06T04:23:52;7.60;1.00
18160;DHT22;9205;52.032;4.314;2023-04-06T04:26:19;7.60;1.00
18160;DHT22;9205;52.032;4.314;2023-04-06T04:28:46;7.60;1.00
18160;DHT22;9205;52.032;4.314;2023-04-06T04:31:14;7.60;1.00
18160;DHT22;9205;52.032;4.314;2023-04-06T04:33:44;7.60;1.00
18160;DHT22;9205;52.032;4.314;2023-04-06T04:36:18;7.70;1.00
18160;DHT22;9205;52.032;4.314;2023-04-06T04:38:47;7.60;1.00
18160;DHT22;9205;52.032;4.314;2023-04-06T04:41:15;7.60;1.00
18160;DHT22;9205;52.032;4.314;2023-04-06T04:43:43;7.60;1.00
18160;DHT22;9205;52.032;4.314;2023-04-06T04:46:12;7.60;1.00
18160;DHT22;9205;52.032;4.314;2023-04-06T04:48:42;7.60;1.00
18160;DHT22;9205;52.032;4.314;2023-04-06T04:51:09;7.70;1.00
18160;DHT22;9205;52.032;4.314;2023-04-06T04:53:56;7.60;1.00
18160;DHT22;9205;52.032;4.314;2023-04-06T04:56:28;7.70;1.00
18160;DHT22;9205;52.032;4.314;2023-04-06T04:59:06;7.70;1.00
18160;DHT22;9205;52.032;4.314;2023-04-06T05:01:37;7.70;1.00
18160;DHT22;9205;52.032;4.314;2023-04-06T05:04:04;7.70;1.00
18160;DHT22;9205;52.032;4.314;2023-04-06T05:06:31;7.70;1.00
18160;DHT22;9205;52.032;4.314;2023-04-06T05:09:00;7.70;1.00
18160;DHT22;9205;52.032;4.314;2023-04-06T05:11:29;7.70;1.00
18160;DHT22;9205;52.032;4.314;2023-04-06T05:13:59;7.70;2.00
18160;DHT22;9205;52.032;4.314;2023-04-06T05:16:27;7.70;13.70
18160;DHT22;9205;52.032;4.314;2023-04-06T05:18:54;7.70;78.30
18160;DHT22;9205;52.032;4.314;2023-04-06T05:21:25;7.80;99.90
18160;DHT22;9205;52.032;4.314;2023-04-06T05:24:02;7.80;99.90
18160;DHT22;9205;52.032;4.314;2023-04-06T05:26:32;7.80;99.90
18160;DHT22;9205;52.032;4.314;2023-04-06T05:29:05;7.80;99.90
18160;DHT22;9205;52.032;4.314;2023-04-06T05:31:36;7.80;99.90
18160;DHT22;9205;52.032;4.314;2023-04-06T05:34:03;7.90;99.90
18160;DHT22;9205;52.032;4.314;2023-04-06T05:36:34;7.90;99.90
18160;DHT22;9205;52.032;4.314;2023-04-06T05:39:08;7.90;1.00
18160;DHT22;9205;52.032;4.314;2023-04-06T05:41:41;7.90;1.00
18160;DHT22;9205;52.032;4.314;2023-04-06T05:44:10;7.90;1.00
18160;DHT22;9205;52.032;4.314;2023-04-06T05:46:40;7.90;1.00
18160;DHT22;9205;52.032;4.314;2023-04-06T05:49:11;7.90;1.00
18160;DHT22;9205;52.032;4.314;2023-04-06T05:51:39;8.00;1.00
18160;DHT22;9205;52.032;4.314;2023-04-06T05:54:08;8.00;1.00
18160;DHT22;9205;52.032;4.314;2023-04-06T05:56:35;8.00;1.00
18160;DHT22;9205;52.032;4.314;2023-04-06T05:59:03;8.00;1.00
18160;DHT22;9205;52.032;4.314;2023-04-06T06:01:32;8.00;1.00
18160;DHT22;9205;52.032;4.314;2023-04-06T06:04:00;8.00;1.00
18160;DHT22;9205;52.032;4.314;2023-04-06T06:06:30;8.10;1.00
18160;DHT22;9205;52.032;4.314;2023-04-06T06:09:15;8.10;1.00
18160;DHT22;9205;52.032;4.314;2023-04-06T06:11:59;8.20;1.00
18160;DHT22;9205;52.032;4.314;2023-04-06T06:14:29;8.20;1.00
18160;DHT22;9205;52.032;4.314;2023-04-06T06:16:56;8.20;99.70
18160;DHT22;9205;52.032;4.314;2023-04-06T06:19:23;8.20;99.90
18160;DHT22;9205;52.032;4.314;2023-04-06T06:21:54;8.20;99.90
18160;DHT22;9205;52.032;4.314;2023-04-06T06:24:23;8.20;1.00
18160;DHT22;9205;52.032;4.314;2023-04-06T06:26:51;8.30;1.00
18160;DHT22;9205;52.032;4.314;2023-04-06T06:29:20;8.30;1.00
18160;DHT22;9205;52.032;4.314;2023-04-06T06:31:48;8.30;1.00
18160;DHT22;9205;52.032;4.314;2023-04-06T06:34:16;8.30;1.00
18160;DHT22;9205;52.032;4.314;2023-04-06T06:36:43;8.30;99.90
18160;DHT22;9205;52.032;4.314;2023-04-06T06:39:12;8.30;1.00
18160;DHT22;9205;52.032;4.314;2023-04-06T06:41:41;8.30;1.00
18160;DHT22;9205;52.032;4.314;2023-04-06T06:44:08;8.30;1.00
18160;DHT22;9205;52.032;4.314;2023-04-06T06:46:36;8.30;99.90
18160;DHT22;9205;52.032;4.314;2023-04-06T06:49:05;8.40;99.90
18160;DHT22;9205;52.032;4.314;2023-04-06T06:51:33;8.30;1.00
18160;DHT22;9205;52.032;4.314;2023-04-06T06:54:01;8.30;1.00
18160;DHT22;9205;52.032;4.314;2023-04-06T06:56:28;8.40;17.20
18160;DHT22;9205;52.032;4.314;2023-04-06T06:58:57;8.30;1.00
18160;DHT22;9205;52.032;4.314;2023-04-06T07:01:24;8.40;1.00
18160;DHT22;9205;52.032;4.314;2023-04-06T07:03:54;8.40;9.10
18160;DHT22;9205;52.032;4.314;2023-04-06T07:06:21;8.50;99.90
18160;DHT22;9205;52.032;4.314;2023-04-06T07:08:48;8.50;1.00
18160;DHT22;9205;52.032;4.314;2023-04-06T07:11:16;8.50;1.00
18160;DHT22;9205;52.032;4.314;2023-04-06T07:13:43;8.60;1.00
18160;DHT22;9205;52.032;4.314;2023-04-06T07:16:12;8.60;1.00
18160;DHT22;9205;52.032;4.314;2023-04-06T07:18:39;8.60;99.90
18160;DHT22;9205;52.032;4.314;2023-04-06T07:21:06;8.60;99.90
18160;DHT22;9205;52.032;4.314;2023-04-06T07:23:34;8.70;99.90
18160;DHT22;9205;52.032;4.314;2023-04-06T07:26:01;8.70;1.00
18160;DHT22;9205;52.032;4.314;2023-04-06T07:28:29;8.80;1.00
18160;DHT22;9205;52.032;4.314;2023-04-06T07:30:57;8.80;1.00
18160;DHT22;9205;52.032;4.314;2023-04-06T07:33:26;8.80;1.00
18160;DHT22;9205;52.032;4.314;2023-04-06T07:35:56;8.80;1.00
18160;DHT22;9205;52.032;4.314;2023-04-06T07:38:24;8.80;1.00
18160;DHT22;9205;52.032;4.314;2023-04-06T07:40:52;8.90;1.00
18160;DHT22;9205;52.032;4.314;2023-04-06T07:43:19;8.80;1.00
18160;DHT22;9205;52.032;4.314;2023-04-06T07:45:47;8.80;1.00
18160;DHT22;9205;52.032;4.314;2023-04-06T07:48:16;8.80;1.00
18160;DHT22;9205;52.032;4.314;2023-04-06T07:50:45;8.90;1.00
18160;DHT22;9205;52.032;4.314;2023-04-06T07:53:14;8.90;1.00
18160;DHT22;9205;52.032;4.314;2023-04-06T07:55:43;8.80;1.00
18160;DHT22;9205;52.032;4.314;2023-04-06T07:58:10;8.60;1.00
18160;DHT22;9205;52.032;4.314;2023-04-06T08:00:37;8.60;1.00
18160;DHT22;9205;52.032;4.314;2023-04-06T08:03:05;8.60;1.00
18160;DHT22;9205;52.032;4.314;2023-04-06T08:05:32;8.60;1.00
18160;DHT22;9205;52.032;4.314;2023-04-06T08:08:01;8.60;1.00
18160;DHT22;9205;52.032;4.314;2023-04-06T08:10:29;8.60;1.00
18160;DHT22;9205;52.032;4.314;2023-04-06T08:12:56;8.50;1.00
18160;DHT22;9205;52.032;4.314;2023-04-06T08:15:23;8.50;1.00
18160;DHT22;9205;52.032;4.314;2023-04-06T08:17:51;8.60;1.00
18160;DHT22;9205;52.032;4.314;2023-04-06T08:20:18;8.50;1.00
18160;DHT22;9205;52.032;4.314;2023-04-06T08:22:45;8.50;25.00
18160;DHT22;9205;52.032;4.314;2023-04-06T08:25:14;8.60;93.50
18160;DHT22;9205;52.032;4.314;2023-04-06T08:27:42;8.60;99.90
18160;DHT22;9205;52.032;4.314;2023-04-06T08:30:09;8.60;99.90
18160;DHT22;9205;52.032;4.314;2023-04-06T08:32:37;8.60;99.90
18160;DHT22;9205;52.032;4.314;2023-04-06T08:35:04;8.60;99.90
18160;DHT22;9205;52.032;4.314;2023-04-06T08:37:32;8.50;99.90
18160;DHT22;9205;52.032;4.314;2023-04-06T08:39:59;8.50;99.90
18160;DHT22;9205;52.032;4.314;2023-04-06T08:42:32;8.50;99.90
18160;DHT22;9205;52.032;4.314;2023-04-06T08:45:00;8.50;99.90
18160;DHT22;9205;52.032;4.314;2023-04-06T08:47:28;8.60;99.90
18160;DHT22;9205;52.032;4.314;2023-04-06T08:49:55;8.60;99.90
18160;DHT22;9205;52.032;4.314;2023-04-06T08:52:25;8.50;99.90
18160;DHT22;9205;52.032;4.314;2023-04-06T08:54:54;8.60;99.90
18160;DHT22;9205;52.032;4.314;2023-04-06T08:57:21;8.50;99.90
18160;DHT22;9205;52.032;4.314;2023-04-06T08:59:51;8.60;99.90
18160;DHT22;9205;52.032;4.314;2023-04-06T09:02:19;8.50;99.90
18160;DHT22;9205;52.032;4.314;2023-04-06T09:04:49;8.50;99.90
18160;DHT22;9205;52.032;4.314;2023-04-06T09:07:21;8.40;99.90
18160;DHT22;9205;52.032;4.314;2023-04-06T09:09:49;8.40;99.90
18160;DHT22;9205;52.032;4.314;2023-04-06T09:12:25;8.40;99.90
18160;DHT22;9205;52.032;4.314;2023-04-06T09:14:55;8.30;99.60
18160;DHT22;9205;52.032;4.314;2023-04-06T09:17:24;8.30;99.90
18160;DHT22;9205;52.032;4.314;2023-04-06T09:19:52;8.30;99.90
18160;DHT22;9205;52.032;4.314;2023-04-06T09:22:20;8.30;99.90
18160;DHT22;9205;52.032;4.314;2023-04-06T09:24:50;8.20;99.90
18160;DHT22;9205;52.032;4.314;2023-04-06T09:27:28;8.20;99.90
18160;DHT22;9205;52.032;4.314;2023-04-06T09:30:05;8.30;99.90
18160;DHT22;9205;52.032;4.314;2023-04-06T09:32:44;8.40;99.90
18160;DHT22;9205;52.032;4.314;2023-04-06T09:35:13;8.20;99.90
18160;DHT22;9205;52.032;4.314;2023-04-06T09:37:41;8.30;99.90
18160;DHT22;9205;52.032;4.314;2023-04-06T09:40:10;8.20;99.90
18160;DHT22;9205;52.032;4.314;2023-04-06T09:42:41;8.30;99.90
18160;DHT22;9205;52.032;4.314;2023-04-06T09:45:10;8.20;99.90
18160;DHT22;9205;52.032;4.314;2023-04-06T09:47:39;8.20;99.90
18160;DHT22;9205;52.032;4.314;2023-04-06T09:50:11;8.20;99.90
18160;DHT22;9205;52.032;4.314;2023-04-06T09:52:42;8.40;99.90
18160;DHT22;9205;52.032;4.314;2023-04-06T09:55:18;8.20;99.90
18160;DHT22;9205;52.032;4.314;2023-04-06T09:57:55;8.30;99.90
18160;DHT22;9205;52.032;4.314;2023-04-06T10:00:32;8.10;99.90
18160;DHT22;9205;52.032;4.314;2023-04-06T10:03:11;8.20;99.90
18160;DHT22;9205;52.032;4.314;2023-04-06T10:05:49;8.40;99.90
18160;DHT22;9205;52.032;4.314;2023-04-06T10:08:23;8.40;99.90
18160;DHT22;9205;52.032;4.314;2023-04-06T10:10:54;8.20;99.90
18160;DHT22;9205;52.032;4.314;2023-04-06T10:13:23;8.30;99.90
18160;DHT22;9205;52.032;4.314;2023-04-06T10:15:54;8.20;99.90
18160;DHT22;9205;52.032;4.314;2023-04-06T10:18:22;8.40;99.90
18160;DHT22;9205;52.032;4.314;2023-04-06T10:20:53;8.40;99.90
18160;DHT22;9205;52.032;4.314;2023-04-06T10:23:26;8.30;99.90
18160;DHT22;9205;52.032;4.314;2023-04-06T10:25:59;8.30;99.90
18160;DHT22;9205;52.032;4.314;2023-04-06T10:28:31;8.30;99.90
18160;DHT22;9205;52.032;4.314;2023-04-06T10:31:05;8.50;99.90
18160;DHT22;9205;52.032;4.314;2023-04-06T10:33:34;8.40;99.90
18160;DHT22;9205;52.032;4.314;2023-04-06T10:36:09;8.60;99.90
18160;DHT22;9205;52.032;4.314;2023-04-06T10:38:38;8.50;99.90
18160;DHT22;9205;52.032;4.314;2023-04-06T10:41:08;8.50;99.90
18160;DHT22;9205;52.032;4.314;2023-04-06T10:43:37;8.50;99.90
18160;DHT22;9205;52.032;4.314;2023-04-06T10:46:09;8.50;99.90
18160;DHT22;9205;52.032;4.314;2023-04-06T10:48:38;8.60;99.90
18160;DHT22;9205;52.032;4.314;2023-04-06T10:51:10;8.30;99.90
18160;DHT22;9205;52.032;4.314;2023-04-06T10:53:40;8.40;99.90
18160;DHT22;9205;52.032;4.314;2023-04-06T10:56:10;8.40;99.90
18160;DHT22;9205;52.032;4.314;2023-04-06T10:58:43;8.40;99.90
18160;DHT22;9205;52.032;4.314;2023-04-06T11:01:14;8.50;99.90
18160;DHT22;9205;52.032;4.314;2023-04-06T11:03:45;8.40;99.90
18160;DHT22;9205;52.032;4.314;2023-04-06T11:06:20;8.40;99.90
18160;DHT22;9205;52.032;4.314;2023-04-06T11:08:48;8.60;99.90
18160;DHT22;9205;52.032;4.314;2023-04-06T11:11:17;8.40;99.90
18160;DHT22;9205;52.032;4.314;2023-04-06T11:13:48;8.40;99.90
18160;DHT22;9205;52.032;4.314;2023-04-06T11:16:19;8.40;99.90
18160;DHT22;9205;52.032;4.314;2023-04-06T11:18:49;8.60;99.90
18160;DHT22;9205;52.032;4.314;2023-04-06T11:21:18;8.40;99.90
18160;DHT22;9205;52.032;4.314;2023-04-06T11:23:46;8.50;99.90
18160;DHT22;9205;52.032;4.314;2023-04-06T11:26:14;8.50;99.90
18160;DHT22;9205;52.032;4.314;2023-04-06T11:28:42;8.60;99.90
18160;DHT22;9205;52.032;4.314;2023-04-06T11:31:10;8.70;99.90
18160;DHT22;9205;52.032;4.314;2023-04-06T11:33:39;8.70;99.90
18160;DHT22;9205;52.032;4.314;2023-04-06T11:36:08;8.80;99.90
18160;DHT22;9205;52.032;4.314;2023-04-06T11:38:38;8.50;99.90
18160;DHT22;9205;52.032;4.314;2023-04-06T11:41:06;8.70;99.90
18160;DHT22;9205;52.032;4.314;2023-04-06T11:43:34;8.50;99.90
18160;DHT22;9205;52.032;4.314;2023-04-06T11:46:02;8.70;99.90
18160;DHT22;9205;52.032;4.314;2023-04-06T11:48:31;8.40;99.90
18160;DHT22;9205;52.032;4.314;2023-04-06T11:51:01;8.40;99.90
18160;DHT22;9205;52.032;4.314;2023-04-06T11:53:30;8.30;99.90
18160;DHT22;9205;52.032;4.314;2023-04-06T11:55:59;8.50;99.90
18160;DHT22;9205;52.032;4.314;2023-04-06T11:58:26;8.50;99.90
18160;DHT22;9205;52.032;4.314;2023-04-06T12:00:53;8.40;99.90
18160;DHT22;9205;52.032;4.314;2023-04-06T12:03:29;8.40;99.90
18160;DHT22;9205;52.032;4.314;2023-04-06T12:05:56;8.30;99.90
18160;DHT22;9205;52.032;4.314;2023-04-06T12:08:25;8.60;99.90
18160;DHT22;9205;52.032;4.314;2023-04-06T12:10:52;8.50;99.90
18160;DHT22;9205;52.032;4.314;2023-04-06T12:13:20;8.40;99.90
18160;DHT22;9205;52.032;4.314;2023-04-06T12:15:47;8.50;99.90
18160;DHT22;9205;52.032;4.314;2023-04-06T12:18:15;8.50;99.90
18160;DHT22;9205;52.032;4.314;2023-04-06T12:20:43;8.70;99.90
18160;DHT22;9205;52.032;4.314;2023-04-06T12:23:10;8.60;99.90
18160;DHT22;9205;52.032;4.314;2023-04-06T12:25:41;8.70;99.90
18160;DHT22;9205;52.032;4.314;2023-04-06T12:28:09;8.60;99.90
18160;DHT22;9205;52.032;4.314;2023-04-06T12:30:37;8.80;99.90
18160;DHT22;9205;52.032;4.314;2023-04-06T12:33:05;8.70;99.90
18160;DHT22;9205;52.032;4.314;2023-04-06T12:35:33;8.60;99.90
18160;DHT22;9205;52.032;4.314;2023-04-06T12:38:01;8.50;99.90
18160;DHT22;9205;52.032;4.314;2023-04-06T12:40:28;8.60;99.90
18160;DHT22;9205;52.032;4.314;2023-04-06T12:42:57;8.70;99.90
18160;DHT22;9205;52.032;4.314;2023-04-06T12:45:24;8.60;99.90
18160;DHT22;9205;52.032;4.314;2023-04-06T12:47:52;8.50;99.90
18160;DHT22;9205;52.032;4.314;2023-04-06T12:50:19;8.70;99.90
18160;DHT22;9205;52.032;4.314;2023-04-06T12:52:47;8.40;99.90
18160;DHT22;9205;52.032;4.314;2023-04-06T12:55:14;8.40;99.90
18160;DHT22;9205;52.032;4.314;2023-04-06T12:57:44;8.50;99.90
18160;DHT22;9205;52.032;4.314;2023-04-06T13:00:14;8.80;99.90
18160;DHT22;9205;52.032;4.314;2023-04-06T13:02:42;8.40;99.90
18160;DHT22;9205;52.032;4.314;2023-04-06T13:05:13;8.70;99.90
18160;DHT22;9205;52.032;4.314;2023-04-06T13:07:45;8.60;99.90
18160;DHT22;9205;52.032;4.314;2023-04-06T13:10:13;8.60;99.90
18160;DHT22;9205;52.032;4.314;2023-04-06T13:12:40;8.80;99.90
18160;DHT22;9205;52.032;4.314;2023-04-06T13:15:08;8.60;99.90
18160;DHT22;9205;52.032;4.314;2023-04-06T13:17:38;8.70;99.90
18160;DHT22;9205;52.032;4.314;2023-04-06T13:20:07;8.80;99.90
18160;DHT22;9205;52.032;4.314;2023-04-06T13:22:34;8.50;99.90
18160;DHT22;9205;52.032;4.314;2023-04-06T13:25:02;8.80;99.90
18160;DHT22;9205;52.032;4.314;2023-04-06T13:27:30;8.50;99.90
18160;DHT22;9205;52.032;4.314;2023-04-06T13:29:59;8.80;99.90
18160;DHT22;9205;52.032;4.314;2023-04-06T13:32:27;8.80;99.90
18160;DHT22;9205;52.032;4.314;2023-04-06T13:34:56;8.90;99.90
18160;DHT22;9205;52.032;4.314;2023-04-06T13:37:24;8.80;99.90
18160;DHT22;9205;52.032;4.314;2023-04-06T13:39:51;9.00;99.90
18160;DHT22;9205;52.032;4.314;2023-04-06T13:42:18;8.80;99.90
18160;DHT22;9205;52.032;4.314;2023-04-06T13:44:45;8.60;99.90
18160;DHT22;9205;52.032;4.314;2023-04-06T13:47:13;8.90;99.90
18160;DHT22;9205;52.032;4.314;2023-04-06T13:49:41;8.90;99.90
18160;DHT22;9205;52.032;4.314;2023-04-06T13:52:10;8.60;99.90
18160;DHT22;9205;52.032;4.314;2023-04-06T13:54:37;8.80;99.90
18160;DHT22;9205;52.032;4.314;2023-04-06T13:57:04;8.90;99.90
18160;DHT22;9205;52.032;4.314;2023-04-06T13:59:33;8.80;99.90
18160;DHT22;9205;52.032;4.314;2023-04-06T14:02:01;8.70;99.90
18160;DHT22;9205;52.032;4.314;2023-04-06T14:04:29;8.70;99.90
18160;DHT22;9205;52.032;4.314;2023-04-06T14:06:57;9.00;99.90
18160;DHT22;9205;52.032;4.314;2023-04-06T14:09:26;8.80;99.90
18160;DHT22;9205;52.032;4.314;2023-04-06T14:11:53;8.70;99.90
18160;DHT22;9205;52.032;4.314;2023-04-06T14:14:22;8.80;99.90
18160;DHT22;9205;52.032;4.314;2023-04-06T14:16:49;9.00;99.90
18160;DHT22;9205;52.032;4.314;2023-04-06T14:19:17;9.10;99.90
18160;DHT22;9205;52.032;4.314;2023-04-06T14:21:45;8.90;99.90
18160;DHT22;9205;52.032;4.314;2023-04-06T14:24:12;8.90;99.90
18160;DHT22;9205;52.032;4.314;2023-04-06T14:26:42;9.20;99.90
18160;DHT22;9205;52.032;4.314;2023-04-06T14:29:10;8.90;99.90
18160;DHT22;9205;52.032;4.314;2023-04-06T14:31:37;8.90;99.90
18160;DHT22;9205;52.032;4.314;2023-04-06T14:34:04;9.10;99.90
18160;DHT22;9205;52.032;4.314;2023-04-06T14:36:32;9.10;99.90
18160;DHT22;9205;52.032;4.314;2023-04-06T14:39:02;9.40;99.90
18160;DHT22;9205;52.032;4.314;2023-04-06T14:41:32;9.30;99.90
18160;DHT22;9205;52.032;4.314;2023-04-06T14:44:01;9.30;99.90
18160;DHT22;9205;52.032;4.314;2023-04-06T14:46:29;9.10;99.90
18160;DHT22;9205;52.032;4.314;2023-04-06T14:48:56;9.00;99.90
18160;DHT22;9205;52.032;4.314;2023-04-06T14:51:24;9.00;99.90
18160;DHT22;9205;52.032;4.314;2023-04-06T14:53:52;9.10;99.90
18160;DHT22;9205;52.032;4.314;2023-04-06T14:56:20;9.10;99.90
18160;DHT22;9205;52.032;4.314;2023-04-06T14:58:48;9.50;99.90
18160;DHT22;9205;52.032;4.314;2023-04-06T15:01:18;9.40;99.90
18160;DHT22;9205;52.032;4.314;2023-04-06T15:03:46;9.20;99.90
18160;DHT22;9205;52.032;4.314;2023-04-06T15:06:14;9.30;99.90
18160;DHT22;9205;52.032;4.314;2023-04-06T15:08:42;9.20;99.90
18160;DHT22;9205;52.032;4.314;2023-04-06T15:11:09;9.50;99.90
18160;DHT22;9205;52.032;4.314;2023-04-06T15:13:37;9.40;99.90
18160;DHT22;9205;52.032;4.314;2023-04-06T15:16:06;9.50;99.90
18160;DHT22;9205;52.032;4.314;2023-04-06T15:18:35;9.50;99.90
18160;DHT22;9205;52.032;4.314;2023-04-06T15:21:02;9.50;99.90
18160;DHT22;9205;52.032;4.314;2023-04-06T15:23:30;9.40;99.90
18160;DHT22;9205;52.032;4.314;2023-04-06T15:25:58;9.60;99.90
18160;DHT22;9205;52.032;4.314;2023-04-06T15:28:26;9.60;99.90
18160;DHT22;9205;52.032;4.314;2023-04-06T15:30:54;9.40;99.90
18160;DHT22;9205;52.032;4.314;2023-04-06T15:33:23;9.60;99.90
18160;DHT22;9205;52.032;4.314;2023-04-06T15:35:52;9.20;99.90
18160;DHT22;9205;52.032;4.314;2023-04-06T15:38:20;9.40;99.90
18160;DHT22;9205;52.032;4.314;2023-04-06T15:40:48;9.30;99.90
18160;DHT22;9205;52.032;4.314;2023-04-06T15:43:16;9.30;99.90
18160;DHT22;9205;52.032;4.314;2023-04-06T15:45:43;9.70;99.90
18160;DHT22;9205;52.032;4.314;2023-04-06T15:48:10;9.80;99.90
18160;DHT22;9205;52.032;4.314;2023-04-06T15:50:37;9.60;99.90
18160;DHT22;9205;52.032;4.314;2023-04-06T15:53:06;9.60;99.90
18160;DHT22;9205;52.032;4.314;2023-04-06T15:55:33;9.80;99.90
18160;DHT22;9205;52.032;4.314;2023-04-06T15:58:03;9.40;99.90
18160;DHT22;9205;52.032;4.314;2023-04-06T16:00:32;9.80;99.90
18160;DHT22;9205;52.032;4.314;2023-04-06T16:02:59;9.70;99.90
18160;DHT22;9205;52.032;4.314;2023-04-06T16:05:28;9.40;99.90
18160;DHT22;9205;52.032;4.314;2023-04-06T16:07:56;9.50;99.90
18160;DHT22;9205;52.032;4.314;2023-04-06T16:10:25;9.80;99.90
18160;DHT22;9205;52.032;4.314;2023-04-06T16:12:52;9.40;99.90
18160;DHT22;9205;52.032;4.314;2023-04-06T16:15:19;9.80;99.90
18160;DHT22;9205;52.032;4.314;2023-04-06T16:17:46;9.60;99.90
18160;DHT22;9205;52.032;4.314;2023-04-06T16:20:13;9.60;99.90